»·PEaware :: N6182G KAVX-L70

N6182G :: KAVX-L70

FLIGHT INFORMATION

Flight Status: Arrived
Operator: Privately registered:
United States
More flights under this callsign
Pilot: Dustin P. (9568)
Aircraft: CESSNA 182 SKYLANE
(C182)
More flights by this aircraft type
Origin: KAVX Catalina
United States
Destination: L70 Agua Dulce
United States
More flights between these airports :: More routes between these airports
Route: +FERMY V25 LAX CHATY
File this flight plan on PilotEdge
Remarks:
Altitude:
(Current/Filed)
8,500ft
Speed:
(Current/Filed)
120kts
Departed: 30-Nov-17 11:52 AM
Arrived: 30-Nov-17 12:40 PM
Distance/Time
Traveled:
66nm/0:48
Distance/Time
To Go:
Arrived

Flight Plot

Page will automatically refresh every two minutes.

Flight plan parsing failed; only flown route is shown


Map Options




Map Legend


Flown Route
Filed Route
Departure Airport
Arrival Airport
Navaid (VOR, NDB)
Fix

Horizontal Profiles

Position Reports

Time Latitude Longitude Heading Altitude Ground
Speed
30-Nov-17 11:39 33.404353 -118.414842 262 1605ft 0kts
30-Nov-17 11:40 33.404353 -118.414842 262 1605ft 0kts
30-Nov-17 11:41 33.404353 -118.414843 262 1605ft 0kts
30-Nov-17 11:42 33.404352 -118.414846 262 1605ft 0kts
30-Nov-17 11:43 33.404352 -118.414849 262 1605ft 0kts
30-Nov-17 11:44 33.404352 -118.414851 262 1605ft 0kts
30-Nov-17 11:45 33.404351 -118.414854 262 1605ft 0kts
30-Nov-17 11:46 33.404351 -118.414857 262 1605ft 0kts
30-Nov-17 11:47 33.404351 -118.414860 262 1605ft 0kts
30-Nov-17 11:48 33.404351 -118.414863 262 1605ft 0kts
30-Nov-17 11:49 33.404350 -118.414865 262 1605ft 0kts
30-Nov-17 11:50 33.404350 -118.414868 262 1605ft 0kts
30-Nov-17 11:51 33.404350 -118.414871 262 1605ft 0kts
30-Nov-17 11:52 33.404345 -118.414960 288 1605ft 2kts
30-Nov-17 11:53 33.406183 -118.413031 51 1605ft 10kts
30-Nov-17 11:54 33.407185 -118.411391 22 1605ft 0kts
30-Nov-17 11:55 33.407189 -118.411389 22 1605ft 0kts
30-Nov-17 11:56 33.407063 -118.412283 232 1605ft 22kts
30-Nov-17 11:57 33.397134 -118.429917 245 1950ft 79kts
30-Nov-17 11:58 33.384109 -118.457425 235 2627ft 96kts
30-Nov-17 11:59 33.392387 -118.480927 330 3517ft 89kts
30-Nov-17 12:00 33.408979 -118.503706 301 4046ft 92kts
30-Nov-17 12:01 33.427916 -118.520659 15 4537ft 89kts
30-Nov-17 12:02 33.453746 -118.520912 5 5360ft 94kts
30-Nov-17 12:03 33.481567 -118.511176 46 5433ft 126kts
30-Nov-17 12:04 33.506487 -118.479839 55 5456ft 134kts
30-Nov-17 12:05 33.530598 -118.445043 52 5543ft 132kts
30-Nov-17 12:06 33.557162 -118.411809 45 5471ft 139kts
30-Nov-17 12:07 33.584847 -118.384372 40 5484ft 139kts
30-Nov-17 12:08 33.615455 -118.356638 39 5621ft 130kts
30-Nov-17 12:09 33.639542 -118.333793 48 6387ft 100kts
30-Nov-17 12:10 33.661624 -118.307726 47 6638ft 121kts
30-Nov-17 12:11 33.686366 -118.279171 45 6501ft 142kts
30-Nov-17 12:12 33.715519 -118.247079 49 6518ft 135kts
30-Nov-17 12:13 33.752072 -118.231624 10 6502ft 146kts
30-Nov-17 12:14 33.783082 -118.259924 305 6490ft 160kts
30-Nov-17 12:15 33.809237 -118.300233 319 6560ft 170kts
30-Nov-17 12:16 33.843791 -118.337030 319 6495ft 160kts
30-Nov-17 12:17 33.879010 -118.369146 326 6531ft 157kts
30-Nov-17 12:18 33.913699 -118.402536 313 6528ft 159kts
30-Nov-17 12:19 33.943051 -118.443454 326 6597ft 167kts
30-Nov-17 12:20 33.986171 -118.460318 349 6493ft 158kts
30-Nov-17 12:21 34.025079 -118.478559 330 6530ft 144kts
30-Nov-17 12:22 34.061743 -118.499071 342 6512ft 145kts
30-Nov-17 12:23 34.101407 -118.516068 346 6568ft 161kts
30-Nov-17 12:24 34.143435 -118.520903 31 6491ft 145kts
30-Nov-17 12:25 34.177300 -118.492806 40 6533ft 158kts
30-Nov-17 12:26 34.215519 -118.467551 20 6578ft 157kts
30-Nov-17 12:27 34.258404 -118.454375 17 6578ft 162kts
30-Nov-17 12:28 34.299322 -118.439063 23 6548ft 145kts
30-Nov-17 12:29 34.334147 -118.418717 38 6634ft 151kts
30-Nov-17 12:30 34.374699 -118.405779 9 6547ft 150kts
30-Nov-17 12:31 34.416344 -118.404955 349 6595ft 149kts
30-Nov-17 12:32 34.454380 -118.428005 343 6719ft 153kts
30-Nov-17 12:33 34.495829 -118.444572 346 6992ft 147kts
30-Nov-17 12:34 34.534572 -118.446198 60 4768ft 125kts
30-Nov-17 12:35 34.517625 -118.416573 139 4104ft 116kts
30-Nov-17 12:36 34.495477 -118.389006 142 3647ft 129kts
30-Nov-17 12:37 34.499085 -118.363342 33 3752ft 88kts
30-Nov-17 12:38 34.505940 -118.331796 68 3618ft 114kts
30-Nov-17 12:39 34.519055 -118.307167 92 3412ft 76kts
30-Nov-17 12:40 34.504351 -118.311858 237 2638ft 52kts
30-Nov-17 12:41 34.497729 -118.332509 315 3159ft 76kts
30-Nov-17 12:42 34.515439 -118.326885 46 3727ft 87kts
30-Nov-17 12:43 34.524601 -118.302950 153 3458ft 93kts
30-Nov-17 12:44 34.506367 -118.308541 232 2643ft 80kts
30-Nov-17 12:45 34.500544 -118.317888 232 2605ft 21kts
30-Nov-17 12:46 34.500917 -118.318169 53 2605ft 9kts
30-Nov-17 12:47 34.501144 -118.317805 45 2605ft 0kts
30-Nov-17 12:48 34.501203 -118.317717 52 2605ft 0kts
30-Nov-17 12:49 34.501204 -118.317716 52 2605ft 0kts
30-Nov-17 12:50 34.501163 -118.317830 107 2605ft 1kts
30-Nov-17 12:51 34.501248 -118.317942 138 2605ft 0kts
30-Nov-17 12:52 34.501248 -118.317942 138 2605ft 0kts
30-Nov-17 12:53 34.501248 -118.317942 138 2605ft 0kts
30-Nov-17 12:54 34.501248 -118.317942 138 2605ft 0kts
30-Nov-17 12:55 34.501248 -118.317942 138 2605ft 0kts

Navigation Log

Ident Type
Flight plan parsing failed, navigation log unavailable